Scroll down
FLIGHT INFORMATION
Japan Airlines

JAL2689

At Arrival Gate

KSFO
 KMIA
DATE: 2020-11-07
GATE:  -
GATE DEPARTURE: 22:38
TAKEOFF: 22:50
DATE: 2020-11-08
GATE: 4
LANDING: 03:30
GATE ARRIVAL: 03:40
FLIGHT DATA
Crew: 
Speed: 
939 kph
Altitude: 
37,024 ft
Stage Length: 
4,153.4 km
Block Time: 
5 hrs
Flight Time: 
4.7 hrs
Fuel Used: 
51,675 kg
Cleared Route: 
TRACK DATA
50,000 ft 1,000 kts
AIRCRAFT INFO AND CUMULATIVE STATS
Aircraft Type: 
B748F
Registration: 
SELCAL: 
MSN/LN: 
0 / 2
Operator: 
Total Flights: 
12
Total Block Time: 
39.7 hrs
Total Flight Time: 
36.3 hrs
Total Fuel Used: 
394,162 kg
DATALINK LOG | Newest first | Current as of: 2022-09-28 21:59:47
LABEL SEQUENCE CONTENT Dn/Up
5Z44028 NOV 20 03:42:36z / FLT DECK GOOD / ACF POS GOOD / GRND SERVICES GOOD / MAINT GOOD▼ Dn
QD405903:40 43.5▼ Dn
QC315003:30▼ Dn
GA2252CARGO STAND 4▲ Up
GR2241KMIA 03:29 MAAS YP/UM WCHR/S/C HI-VAL NO DIPL/VIP NO▼ Dn
2U1107KMIA 080253Z 06013G18KT 10SM FEW025 FEW050 SCT110 OVC160 25/22 A2986 RMK AO2 RAB14E33 SLP111 P0000 60016 T02500222 50001 $▲ Up
2S1231KMIA▼ Dn
2U0636KMIA 080153Z 04008KT 10SM SCT023 BKN150 OVC170 24/22 A2987 RMK AO2 PK WND 10032/0119 RAB14E47 SLP114 P0016 T02390222 $▲ Up
2S0625KMIA▼ Dn
2U3706KMIA 080153Z 04008KT 10SM SCT023 BKN150 OVC170 24/22 A2987 RMK AO2 PK WND 10032/0119 RAB14E47 SLP114 P0016 T02390222 $▲ Up
2S3757KMIA▼ Dn
QB521922:50▼ Dn
QA390722:38 157.6▼ Dn
2U0644KSFO 072056Z 28012KT 10SM FEW031 SCT200 16/05 A2974 RMK AO2 SLP071 T01560050 58001▲ Up
2S0638KSFO▼ Dn
A30637CLEARED TO KMIA VIA NIITE3 SYRAH Q128 JSICA ILC BCE RSK J58 FTI J76 SPS UKW CVE AEX J58 HRV REDFN BAGGS SSCOT5. SQUAWK 6305.▲ Up
Q00434[LINK ACK]▲ Up
Q00434[LINK TEST]▼ Dn


AIRCRAFT HISTORY
FLIGHT DATE FLIGHT NO. ORIGIN DESTINATION CLEARED ROUTE BLOCK TIME FLIGHT TIME FUEL USED PILOT
2020-12-02JAL1202SCEL KMIA SCEL DONTI ESNOX KATOS XOPIR SIBOT ENLOP ATEDA ELASA ASEPU IREMI ILMAR JCL ILROL RELOR PUPMI KUSKU AKVAK LOBOT VANIK BOKAN ILTUR PML OGRUL ENPAN COLBY SIA EPSIM ALTIB ZEUSS FOWEE KMIA8.1 hrs7.7 hrs174,680 lbKevin Hall
2020-12-01JAL1231SAEZ SCEL SAEZ URINO NIN NUXIM ARMUP LYE MUMSA TOSOR POPLU RYD GEDUN EDRIS USVET PAPIR DOZ UMKAL SCEL2 hrs1.9 hrs46,235 lbKevin Hall
2020-12-01JAL1201SUMU SAEZ SUMU DAGUS UGIMI SAEZ0.7 hrs0.5 hrs15,274 lbKevin Hall
2020-11-14JAL1123SAEZ SUMU SAEZ EZE12 PTA DORVO TOKAM SUMU0.6 hrs0.4 hrs16,072 lbKevin Hall
2020-11-13JAL1113KMIA SAEZ KMIA EONNS ELLEE URSUS BIBAT UCA PUTUL SIA BEREX KILER UGREB XOGEN EJA PALUG SJE MARTU POTBA PUPAS REMEX LET SPRIN VUKEB NEGRA SIMIP UBLUN ERODO RCO ISARA KADOX NIRBO LOKOX DOLGI VAREB GELAS VALUS EGUSU ASETO ESMUR PUBUM IMBER UBRIX PUPSI TOPOG EDPUN TOLEM PABEN ISOPO ROS MULTA SNT SAEZ8.7 hrs8.1 hrs189,413 lbKevin Hall
2020-11-07JAL2689KSFO KMIA 5 hrs4.7 hrs113,925 lbJames W.
2020-05-07JAL222KPDX KSFO KPDX EASON EBINY ELENN ENVIE TOCOS ETCHY MLBEC KSFO2 hrs1.7 hrs56,415 lbCharles Harris
2020-04-16JAL519KDEN KPDX KDEN DEN ZIMMR RLG EKR BOI JOTBA SODDA DUFUR RABBI HHOOD BLRUN SHAFR OMMSI RW28R2.5 hrs2.3 hrs49,905 lbChemtrails
2020-04-04JAL519KDTW KDEN KDTW SAAMS BSLNE FDRCH MTRCT KAYLN IIICE SMUUV OBK KDEN3.6 hrs3.3 hrs67,537 lbChemtrails
2019-05-09JAL509KIAH KDTW KIAH RENNK COLET SUSHI WWELL INDIE TPAKK LIT RUSLR HUMBO PENBE PXV WWODD DERBN SWAYD QNVIL JOEBU VDUUB CLRIC SHANX HANBL PRWLR HEMIE TRPRS DZMND ROUGE RW22L2.3 hrs2 hrs50,843 lbRandall Smith
2019-02-03JAL519KSLC KIAH KSLC BUBBY RUGGD LOFOG LEGBE MTU DEN HGO LAA SPS BATIK FUZ BAZBL BAATS RIICE BRKMN MLRRR LYYTE KIAH2.8 hrs2.5 hrs55,821 lbChemtrails
2019-01-24KPAE KSLC 1.5 hrs1.3 hrs32,860 lbTom Landry